sensor_id;sensor_type;location;lat;lon;timestamp;P1;durP1;ratioP1;P2;durP2;ratioP2
39536;SDS011;26933;46.730;6.526;2022-10-31T00:02:01;5.78;;;0.75;;
39536;SDS011;26933;46.730;6.526;2022-10-31T00:05:02;3.10;;;1.25;;
39536;SDS011;26933;46.730;6.526;2022-10-31T00:08:03;1.45;;;0.70;;
39536;SDS011;26933;46.730;6.526;2022-10-31T00:11:07;0.82;;;0.55;;
39536;SDS011;26933;46.730;6.526;2022-10-31T00:14:09;0.20;;;0.20;;
39536;SDS011;26933;46.730;6.526;2022-10-31T00:17:10;1.75;;;0.68;;
39536;SDS011;26933;46.730;6.526;2022-10-31T00:20:11;1.60;;;0.70;;
39536;SDS011;26933;46.730;6.526;2022-10-31T00:23:12;1.00;;;0.43;;
39536;SDS011;26933;46.730;6.526;2022-10-31T00:26:13;0.20;;;0.20;;
39536;SDS011;26933;46.730;6.526;2022-10-31T00:29:15;1.48;;;0.80;;
39536;SDS011;26933;46.730;6.526;2022-10-31T00:32:16;4.47;;;0.50;;
39536;SDS011;26933;46.730;6.526;2022-10-31T00:35:17;1.52;;;0.75;;
39536;SDS011;26933;46.730;6.526;2022-10-31T00:38:19;0.70;;;0.57;;
39536;SDS011;26933;46.730;6.526;2022-10-31T00:41:20;0.28;;;0.28;;
39536;SDS011;26933;46.730;6.526;2022-10-31T00:44:21;2.70;;;0.90;;
39536;SDS011;26933;46.730;6.526;2022-10-31T00:47:22;1.38;;;0.70;;
39536;SDS011;26933;46.730;6.526;2022-10-31T00:50:23;4.93;;;0.77;;
39536;SDS011;26933;46.730;6.526;2022-10-31T00:53:24;0.30;;;0.30;;
39536;SDS011;26933;46.730;6.526;2022-10-31T00:56:26;14.38;;;1.23;;
39536;SDS011;26933;46.730;6.526;2022-10-31T00:59:27;0.70;;;0.60;;
39536;SDS011;26933;46.730;6.526;2022-10-31T01:02:28;0.65;;;0.40;;
39536;SDS011;26933;46.730;6.526;2022-10-31T01:05:29;2.00;;;1.02;;
39536;SDS011;26933;46.730;6.526;2022-10-31T01:08:30;3.30;;;1.50;;
39536;SDS011;26933;46.730;6.526;2022-10-31T01:11:32;0.98;;;0.65;;
39536;SDS011;26933;46.730;6.526;2022-10-31T01:14:33;1.27;;;0.63;;
39536;SDS011;26933;46.730;6.526;2022-10-31T01:17:34;1.52;;;0.75;;
39536;SDS011;26933;46.730;6.526;2022-10-31T01:20:36;0.30;;;0.30;;
39536;SDS011;26933;46.730;6.526;2022-10-31T01:23:37;0.43;;;0.30;;
39536;SDS011;26933;46.730;6.526;2022-10-31T01:26:38;2.75;;;0.68;;
39536;SDS011;26933;46.730;6.526;2022-10-31T01:29:39;1.23;;;0.63;;
39536;SDS011;26933;46.730;6.526;2022-10-31T01:32:41;1.45;;;0.90;;
39536;SDS011;26933;46.730;6.526;2022-10-31T01:35:42;0.30;;;0.30;;
39536;SDS011;26933;46.730;6.526;2022-10-31T01:38:43;0.40;;;0.40;;
39536;SDS011;26933;46.730;6.526;2022-10-31T01:41:46;0.63;;;0.30;;
39536;SDS011;26933;46.730;6.526;2022-10-31T01:44:50;0.55;;;0.47;;
39536;SDS011;26933;46.730;6.526;2022-10-31T01:47:51;1.00;;;0.50;;
39536;SDS011;26933;46.730;6.526;2022-10-31T01:50:52;0.82;;;0.57;;
39536;SDS011;26933;46.730;6.526;2022-10-31T01:53:55;0.25;;;0.25;;
39536;SDS011;26933;46.730;6.526;2022-10-31T01:56:57;0.75;;;0.63;;
39536;SDS011;26933;46.730;6.526;2022-10-31T01:59:59;0.98;;;0.55;;
39536;SDS011;26933;46.730;6.526;2022-10-31T02:03:01;0.30;;;0.30;;
39536;SDS011;26933;46.730;6.526;2022-10-31T02:06:03;1.27;;;0.75;;
39536;SDS011;26933;46.730;6.526;2022-10-31T02:09:07;0.55;;;0.50;;
39536;SDS011;26933;46.730;6.526;2022-10-31T02:12:09;0.32;;;0.32;;
39536;SDS011;26933;46.730;6.526;2022-10-31T02:15:11;0.57;;;0.43;;
39536;SDS011;26933;46.730;6.526;2022-10-31T02:18:12;0.40;;;0.28;;
39536;SDS011;26933;46.730;6.526;2022-10-31T02:28:02;0.47;;;0.40;;
39536;SDS011;26933;46.730;6.526;2022-10-31T02:31:36;1.75;;;0.55;;
39536;SDS011;26933;46.730;6.526;2022-10-31T02:34:43;2.38;;;0.73;;
39536;SDS011;26933;46.730;6.526;2022-10-31T02:37:57;2.22;;;0.70;;
39536;SDS011;26933;46.730;6.526;2022-10-31T02:44:38;2.20;;;0.45;;
39536;SDS011;26933;46.730;6.526;2022-10-31T02:47:41;0.55;;;0.43;;
39536;SDS011;26933;46.730;6.526;2022-10-31T02:50:45;0.60;;;0.52;;
39536;SDS011;26933;46.730;6.526;2022-10-31T02:53:49;0.75;;;0.40;;
39536;SDS011;26933;46.730;6.526;2022-10-31T02:56:51;1.80;;;0.85;;
39536;SDS011;26933;46.730;6.526;2022-10-31T02:59:58;1.73;;;0.57;;
39536;SDS011;26933;46.730;6.526;2022-10-31T03:09:18;0.85;;;0.40;;
39536;SDS011;26933;46.730;6.526;2022-10-31T03:12:31;0.30;;;0.30;;
39536;SDS011;26933;46.730;6.526;2022-10-31T03:15:45;1.10;;;0.85;;
39536;SDS011;26933;46.730;6.526;2022-10-31T03:18:52;0.80;;;0.52;;
39536;SDS011;26933;46.730;6.526;2022-10-31T03:21:59;3.83;;;0.68;;
39536;SDS011;26933;46.730;6.526;2022-10-31T03:25:02;0.68;;;0.40;;
39536;SDS011;26933;46.730;6.526;2022-10-31T03:28:05;0.30;;;0.30;;
39536;SDS011;26933;46.730;6.526;2022-10-31T03:31:07;0.40;;;0.40;;
39536;SDS011;26933;46.730;6.526;2022-10-31T03:34:11;0.65;;;0.30;;
39536;SDS011;26933;46.730;6.526;2022-10-31T03:37:14;0.93;;;0.47;;
39536;SDS011;26933;46.730;6.526;2022-10-31T03:40:18;0.85;;;0.40;;
39536;SDS011;26933;46.730;6.526;2022-10-31T03:43:22;0.30;;;0.30;;
39536;SDS011;26933;46.730;6.526;2022-10-31T03:46:25;0.40;;;0.35;;
39536;SDS011;26933;46.730;6.526;2022-10-31T03:49:29;2.63;;;1.02;;
39536;SDS011;26933;46.730;6.526;2022-10-31T03:55:49;0.32;;;0.32;;
39536;SDS011;26933;46.730;6.526;2022-10-31T03:58:57;1.38;;;0.80;;
39536;SDS011;26933;46.730;6.526;2022-10-31T04:02:02;6.80;;;1.05;;
39536;SDS011;26933;46.730;6.526;2022-10-31T04:05:04;0.30;;;0.30;;
39536;SDS011;26933;46.730;6.526;2022-10-31T04:08:07;1.13;;;0.60;;
39536;SDS011;26933;46.730;6.526;2022-10-31T04:11:09;2.92;;;0.60;;
39536;SDS011;26933;46.730;6.526;2022-10-31T04:14:15;3.10;;;0.40;;
39536;SDS011;26933;46.730;6.526;2022-10-31T04:17:17;0.43;;;0.35;;
39536;SDS011;26933;46.730;6.526;2022-10-31T04:20:28;1.88;;;1.02;;
39536;SDS011;26933;46.730;6.526;2022-10-31T04:23:29;4.25;;;1.40;;
39536;SDS011;26933;46.730;6.526;2022-10-31T04:26:32;0.35;;;0.32;;
39536;SDS011;26933;46.730;6.526;2022-10-31T04:29:33;0.85;;;0.50;;
39536;SDS011;26933;46.730;6.526;2022-10-31T04:32:34;0.55;;;0.45;;
39536;SDS011;26933;46.730;6.526;2022-10-31T04:35:36;0.47;;;0.47;;
39536;SDS011;26933;46.730;6.526;2022-10-31T04:38:37;0.77;;;0.50;;
39536;SDS011;26933;46.730;6.526;2022-10-31T04:41:49;0.30;;;0.30;;
39536;SDS011;26933;46.730;6.526;2022-10-31T04:44:52;0.68;;;0.40;;
39536;SDS011;26933;46.730;6.526;2022-10-31T04:47:53;6.35;;;0.82;;
39536;SDS011;26933;46.730;6.526;2022-10-31T04:51:00;2.72;;;1.02;;
39536;SDS011;26933;46.730;6.526;2022-10-31T04:54:01;1.15;;;0.65;;
39536;SDS011;26933;46.730;6.526;2022-10-31T04:57:08;0.38;;;0.38;;
39536;SDS011;26933;46.730;6.526;2022-10-31T05:00:11;1.35;;;0.60;;
39536;SDS011;26933;46.730;6.526;2022-10-31T05:03:13;0.77;;;0.43;;
39536;SDS011;26933;46.730;6.526;2022-10-31T05:06:14;2.25;;;1.15;;
39536;SDS011;26933;46.730;6.526;2022-10-31T05:09:16;0.43;;;0.43;;
39536;SDS011;26933;46.730;6.526;2022-10-31T05:12:17;1.95;;;0.68;;
39536;SDS011;26933;46.730;6.526;2022-10-31T05:15:37;0.50;;;0.50;;
39536;SDS011;26933;46.730;6.526;2022-10-31T05:18:41;0.60;;;0.52;;
39536;SDS011;26933;46.730;6.526;2022-10-31T05:22:01;0.63;;;0.50;;
39536;SDS011;26933;46.730;6.526;2022-10-31T05:25:03;1.52;;;0.80;;
39536;SDS011;26933;46.730;6.526;2022-10-31T05:28:04;1.55;;;0.68;;
39536;SDS011;26933;46.730;6.526;2022-10-31T05:31:06;0.38;;;0.38;;
39536;SDS011;26933;46.730;6.526;2022-10-31T05:34:08;2.28;;;1.00;;
39536;SDS011;26933;46.730;6.526;2022-10-31T05:37:27;0.75;;;0.57;;
39536;SDS011;26933;46.730;6.526;2022-10-31T05:40:30;0.22;;;0.20;;
39536;SDS011;26933;46.730;6.526;2022-10-31T05:43:31;1.80;;;0.80;;
39536;SDS011;26933;46.730;6.526;2022-10-31T05:46:33;1.40;;;0.70;;
39536;SDS011;26933;46.730;6.526;2022-10-31T05:49:40;4.10;;;0.98;;
39536;SDS011;26933;46.730;6.526;2022-10-31T05:53:01;0.45;;;0.45;;
39536;SDS011;26933;46.730;6.526;2022-10-31T05:56:09;1.75;;;0.65;;
39536;SDS011;26933;46.730;6.526;2022-10-31T05:59:11;0.20;;;0.20;;
39536;SDS011;26933;46.730;6.526;2022-10-31T06:02:13;0.45;;;0.45;;
39536;SDS011;26933;46.730;6.526;2022-10-31T06:05:46;1.20;;;0.82;;
39536;SDS011;26933;46.730;6.526;2022-10-31T06:08:47;0.20;;;0.20;;
39536;SDS011;26933;46.730;6.526;2022-10-31T06:11:53;0.30;;;0.30;;
39536;SDS011;26933;46.730;6.526;2022-10-31T06:15:00;3.35;;;1.00;;
39536;SDS011;26933;46.730;6.526;2022-10-31T06:18:04;1.42;;;0.60;;
39536;SDS011;26933;46.730;6.526;2022-10-31T06:21:17;1.30;;;0.73;;
39536;SDS011;26933;46.730;6.526;2022-10-31T06:24:19;1.05;;;0.65;;
39536;SDS011;26933;46.730;6.526;2022-10-31T06:27:33;2.25;;;1.17;;
39536;SDS011;26933;46.730;6.526;2022-10-31T06:30:41;0.55;;;0.52;;
39536;SDS011;26933;46.730;6.526;2022-10-31T06:33:42;1.13;;;0.55;;
39536;SDS011;26933;46.730;6.526;2022-10-31T06:36:45;0.95;;;0.85;;
39536;SDS011;26933;46.730;6.526;2022-10-31T06:39:46;0.40;;;0.40;;
39536;SDS011;26933;46.730;6.526;2022-10-31T06:42:59;4.50;;;0.65;;
39536;SDS011;26933;46.730;6.526;2022-10-31T06:46:04;4.32;;;0.88;;
39536;SDS011;26933;46.730;6.526;2022-10-31T06:49:12;0.38;;;0.20;;
39536;SDS011;26933;46.730;6.526;2022-10-31T06:52:24;0.80;;;0.68;;
39536;SDS011;26933;46.730;6.526;2022-10-31T06:55:25;0.45;;;0.45;;
39536;SDS011;26933;46.730;6.526;2022-10-31T06:58:27;0.63;;;0.63;;
39536;SDS011;26933;46.730;6.526;2022-10-31T07:01:33;1.15;;;0.55;;
39536;SDS011;26933;46.730;6.526;2022-10-31T07:04:35;3.55;;;0.73;;
39536;SDS011;26933;46.730;6.526;2022-10-31T07:07:36;0.45;;;0.45;;
39536;SDS011;26933;46.730;6.526;2022-10-31T07:10:38;0.50;;;0.40;;
39536;SDS011;26933;46.730;6.526;2022-10-31T07:13:39;1.80;;;0.95;;
39536;SDS011;26933;46.730;6.526;2022-10-31T07:16:41;0.32;;;0.32;;
39536;SDS011;26933;46.730;6.526;2022-10-31T07:19:45;3.53;;;1.40;;
39536;SDS011;26933;46.730;6.526;2022-10-31T07:22:49;2.00;;;0.70;;
39536;SDS011;26933;46.730;6.526;2022-10-31T07:25:54;1.65;;;1.00;;
39536;SDS011;26933;46.730;6.526;2022-10-31T07:28:59;1.38;;;0.93;;
39536;SDS011;26933;46.730;6.526;2022-10-31T07:32:02;2.70;;;1.20;;
39536;SDS011;26933;46.730;6.526;2022-10-31T07:35:04;2.58;;;1.17;;
39536;SDS011;26933;46.730;6.526;2022-10-31T07:38:19;0.98;;;0.88;;
39536;SDS011;26933;46.730;6.526;2022-10-31T07:41:21;1.25;;;1.02;;
39536;SDS011;26933;46.730;6.526;2022-10-31T07:44:22;5.03;;;2.13;;
39536;SDS011;26933;46.730;6.526;2022-10-31T07:47:42;4.95;;;1.25;;
39536;SDS011;26933;46.730;6.526;2022-10-31T07:51:02;3.22;;;2.50;;
39536;SDS011;26933;46.730;6.526;2022-10-31T07:54:32;1.63;;;1.23;;
39536;SDS011;26933;46.730;6.526;2022-10-31T07:57:34;2.78;;;1.67;;
39536;SDS011;26933;46.730;6.526;2022-10-31T08:00:37;2.05;;;1.30;;
39536;SDS011;26933;46.730;6.526;2022-10-31T08:03:38;3.33;;;2.35;;
39536;SDS011;26933;46.730;6.526;2022-10-31T08:06:58;3.72;;;1.90;;
39536;SDS011;26933;46.730;6.526;2022-10-31T08:10:05;4.40;;;1.73;;
39536;SDS011;26933;46.730;6.526;2022-10-31T08:13:09;3.20;;;1.70;;
39536;SDS011;26933;46.730;6.526;2022-10-31T08:16:14;1.75;;;0.90;;
39536;SDS011;26933;46.730;6.526;2022-10-31T08:19:34;4.72;;;2.15;;
39536;SDS011;26933;46.730;6.526;2022-10-31T08:22:35;3.13;;;1.15;;
39536;SDS011;26933;46.730;6.526;2022-10-31T08:25:37;4.25;;;1.33;;
39536;SDS011;26933;46.730;6.526;2022-10-31T08:28:38;6.55;;;1.95;;
39536;SDS011;26933;46.730;6.526;2022-10-31T08:31:41;3.08;;;2.47;;
39536;SDS011;26933;46.730;6.526;2022-10-31T08:35:00;7.15;;;2.13;;
39536;SDS011;26933;46.730;6.526;2022-10-31T08:38:20;3.78;;;1.42;;
39536;SDS011;26933;46.730;6.526;2022-10-31T08:41:22;5.90;;;2.92;;
39536;SDS011;26933;46.730;6.526;2022-10-31T08:44:23;3.03;;;1.52;;
39536;SDS011;26933;46.730;6.526;2022-10-31T08:47:26;5.80;;;1.48;;
39536;SDS011;26933;46.730;6.526;2022-10-31T08:50:29;4.60;;;2.47;;
39536;SDS011;26933;46.730;6.526;2022-10-31T08:53:30;3.78;;;2.15;;
39536;SDS011;26933;46.730;6.526;2022-10-31T08:56:54;2.40;;;1.58;;
39536;SDS011;26933;46.730;6.526;2022-10-31T09:00:16;4.50;;;2.33;;
39536;SDS011;26933;46.730;6.526;2022-10-31T09:03:29;2.78;;;1.58;;
39536;SDS011;26933;46.730;6.526;2022-10-31T09:06:31;3.05;;;1.50;;
39536;SDS011;26933;46.730;6.526;2022-10-31T09:09:33;3.85;;;2.20;;
39536;SDS011;26933;46.730;6.526;2022-10-31T09:12:35;3.28;;;1.75;;
39536;SDS011;26933;46.730;6.526;2022-10-31T09:16:11;3.35;;;2.17;;
39536;SDS011;26933;46.730;6.526;2022-10-31T09:19:12;5.65;;;2.60;;
39536;SDS011;26933;46.730;6.526;2022-10-31T09:22:18;2.97;;;1.77;;
39536;SDS011;26933;46.730;6.526;2022-10-31T09:25:19;4.28;;;2.13;;
39536;SDS011;26933;46.730;6.526;2022-10-31T09:28:33;6.75;;;2.22;;
39536;SDS011;26933;46.730;6.526;2022-10-31T09:31:40;3.72;;;1.48;;
39536;SDS011;26933;46.730;6.526;2022-10-31T09:34:58;4.57;;;1.60;;
39536;SDS011;26933;46.730;6.526;2022-10-31T09:38:01;3.53;;;1.85;;
39536;SDS011;26933;46.730;6.526;2022-10-31T09:44:22;4.10;;;2.05;;
39536;SDS011;26933;46.730;6.526;2022-10-31T09:47:40;3.88;;;2.35;;
39536;SDS011;26933;46.730;6.526;2022-10-31T09:51:07;3.97;;;2.08;;
39536;SDS011;26933;46.730;6.526;2022-10-31T09:57:31;4.15;;;2.03;;
39536;SDS011;26933;46.730;6.526;2022-10-31T10:00:34;9.73;;;2.75;;
39536;SDS011;26933;46.730;6.526;2022-10-31T10:03:39;3.83;;;1.90;;
39536;SDS011;26933;46.730;6.526;2022-10-31T10:07:03;2.88;;;1.52;;
39536;SDS011;26933;46.730;6.526;2022-10-31T10:26:18;4.75;;;2.25;;
39536;SDS011;26933;46.730;6.526;2022-10-31T10:29:31;4.45;;;2.45;;
39536;SDS011;26933;46.730;6.526;2022-10-31T10:32:37;4.40;;;1.73;;
39536;SDS011;26933;46.730;6.526;2022-10-31T10:35:42;4.80;;;2.42;;
39536;SDS011;26933;46.730;6.526;2022-10-31T10:41:47;7.20;;;3.42;;
39536;SDS011;26933;46.730;6.526;2022-10-31T10:45:14;3.72;;;2.20;;
39536;SDS011;26933;46.730;6.526;2022-10-31T10:55:33;5.47;;;2.60;;
39536;SDS011;26933;46.730;6.526;2022-10-31T10:58:40;2.10;;;1.20;;
39536;SDS011;26933;46.730;6.526;2022-10-31T11:01:42;4.03;;;2.40;;
39536;SDS011;26933;46.730;6.526;2022-10-31T11:04:44;3.72;;;1.95;;
39536;SDS011;26933;46.730;6.526;2022-10-31T11:07:46;4.20;;;1.98;;
39536;SDS011;26933;46.730;6.526;2022-10-31T11:10:55;9.13;;;3.10;;
39536;SDS011;26933;46.730;6.526;2022-10-31T11:14:02;4.30;;;2.30;;
39536;SDS011;26933;46.730;6.526;2022-10-31T11:17:09;3.92;;;2.05;;
39536;SDS011;26933;46.730;6.526;2022-10-31T11:23:19;5.10;;;1.98;;
39536;SDS011;26933;46.730;6.526;2022-10-31T11:26:21;7.70;;;3.08;;
39536;SDS011;26933;46.730;6.526;2022-10-31T11:29:23;4.32;;;2.17;;
39536;SDS011;26933;46.730;6.526;2022-10-31T11:32:25;3.65;;;1.98;;
39536;SDS011;26933;46.730;6.526;2022-10-31T11:35:27;5.18;;;2.45;;
39536;SDS011;26933;46.730;6.526;2022-10-31T11:38:31;6.05;;;2.38;;
39536;SDS011;26933;46.730;6.526;2022-10-31T11:41:34;5.32;;;2.45;;
39536;SDS011;26933;46.730;6.526;2022-10-31T11:44:41;6.75;;;3.03;;
39536;SDS011;26933;46.730;6.526;2022-10-31T11:47:43;4.90;;;1.98;;
39536;SDS011;26933;46.730;6.526;2022-10-31T11:50:52;5.95;;;2.17;;
39536;SDS011;26933;46.730;6.526;2022-10-31T11:53:56;4.45;;;2.15;;
39536;SDS011;26933;46.730;6.526;2022-10-31T11:56:58;3.55;;;1.83;;
39536;SDS011;26933;46.730;6.526;2022-10-31T12:00:00;7.13;;;2.22;;
39536;SDS011;26933;46.730;6.526;2022-10-31T12:06:33;4.47;;;2.15;;
39536;SDS011;26933;46.730;6.526;2022-10-31T12:09:35;5.20;;;2.67;;
39536;SDS011;26933;46.730;6.526;2022-10-31T12:12:47;4.82;;;2.70;;
39536;SDS011;26933;46.730;6.526;2022-10-31T12:15:56;5.32;;;2.33;;
39536;SDS011;26933;46.730;6.526;2022-10-31T12:22:11;5.65;;;2.72;;
39536;SDS011;26933;46.730;6.526;2022-10-31T12:28:29;6.07;;;3.50;;
39536;SDS011;26933;46.730;6.526;2022-10-31T12:38:21;6.07;;;3.05;;
39536;SDS011;26933;46.730;6.526;2022-10-31T12:41:29;7.20;;;3.25;;
39536;SDS011;26933;46.730;6.526;2022-10-31T12:44:44;11.30;;;2.85;;
39536;SDS011;26933;46.730;6.526;2022-10-31T12:47:55;4.60;;;2.22;;
39536;SDS011;26933;46.730;6.526;2022-10-31T12:57:53;4.63;;;1.80;;
39536;SDS011;26933;46.730;6.526;2022-10-31T13:00:47;3.83;;;2.05;;
39536;SDS011;26933;46.730;6.526;2022-10-31T13:06:55;6.10;;;2.88;;
39536;SDS011;26933;46.730;6.526;2022-10-31T13:13:13;6.70;;;2.25;;
39536;SDS011;26933;46.730;6.526;2022-10-31T13:16:18;5.15;;;2.38;;
39536;SDS011;26933;46.730;6.526;2022-10-31T13:19:22;4.20;;;2.10;;
39536;SDS011;26933;46.730;6.526;2022-10-31T13:22:26;4.13;;;2.35;;
39536;SDS011;26933;46.730;6.526;2022-10-31T13:25:31;5.90;;;2.53;;
39536;SDS011;26933;46.730;6.526;2022-10-31T13:28:35;5.72;;;2.58;;
39536;SDS011;26933;46.730;6.526;2022-10-31T13:31:39;7.60;;;2.17;;
39536;SDS011;26933;46.730;6.526;2022-10-31T13:34:42;6.93;;;2.83;;
39536;SDS011;26933;46.730;6.526;2022-10-31T13:37:48;4.25;;;1.77;;
39536;SDS011;26933;46.730;6.526;2022-10-31T13:40:55;5.22;;;2.60;;
39536;SDS011;26933;46.730;6.526;2022-10-31T13:50:26;4.97;;;1.92;;
39536;SDS011;26933;46.730;6.526;2022-10-31T13:56:37;4.90;;;2.38;;
39536;SDS011;26933;46.730;6.526;2022-10-31T13:59:45;2.72;;;1.35;;
39536;SDS011;26933;46.730;6.526;2022-10-31T14:02:48;4.00;;;1.50;;
39536;SDS011;26933;46.730;6.526;2022-10-31T14:05:52;3.10;;;1.50;;
39536;SDS011;26933;46.730;6.526;2022-10-31T14:08:54;3.53;;;1.55;;
39536;SDS011;26933;46.730;6.526;2022-10-31T14:11:56;2.55;;;1.52;;
39536;SDS011;26933;46.730;6.526;2022-10-31T14:15:15;3.20;;;1.42;;
39536;SDS011;26933;46.730;6.526;2022-10-31T14:18:21;4.68;;;1.77;;
39536;SDS011;26933;46.730;6.526;2022-10-31T14:30:29;7.65;;;1.90;;
39536;SDS011;26933;46.730;6.526;2022-10-31T14:33:31;6.28;;;2.17;;
39536;SDS011;26933;46.730;6.526;2022-10-31T14:37:34;5.30;;;2.33;;
39536;SDS011;26933;46.730;6.526;2022-10-31T14:52:58;3.38;;;1.70;;
39536;SDS011;26933;46.730;6.526;2022-10-31T14:56:01;5.38;;;1.75;;
39536;SDS011;26933;46.730;6.526;2022-10-31T14:59:07;2.80;;;1.58;;
39536;SDS011;26933;46.730;6.526;2022-10-31T15:02:13;4.28;;;1.60;;
39536;SDS011;26933;46.730;6.526;2022-10-31T15:05:16;3.28;;;1.88;;
39536;SDS011;26933;46.730;6.526;2022-10-31T15:08:33;2.92;;;1.60;;
39536;SDS011;26933;46.730;6.526;2022-10-31T15:11:36;8.75;;;1.90;;
39536;SDS011;26933;46.730;6.526;2022-10-31T15:14:38;1.85;;;0.98;;
39536;SDS011;26933;46.730;6.526;2022-10-31T15:17:41;5.28;;;1.80;;
39536;SDS011;26933;46.730;6.526;2022-10-31T15:20:45;3.83;;;1.60;;
39536;SDS011;26933;46.730;6.526;2022-10-31T15:23:46;5.03;;;2.10;;
39536;SDS011;26933;46.730;6.526;2022-10-31T15:26:48;3.60;;;1.58;;
39536;SDS011;26933;46.730;6.526;2022-10-31T15:29:51;3.63;;;1.45;;
39536;SDS011;26933;46.730;6.526;2022-10-31T15:32:53;3.72;;;1.83;;
39536;SDS011;26933;46.730;6.526;2022-10-31T15:35:55;2.95;;;1.52;;
39536;SDS011;26933;46.730;6.526;2022-10-31T15:38:56;4.55;;;1.80;;
39536;SDS011;26933;46.730;6.526;2022-10-31T15:41:58;2.90;;;1.50;;
39536;SDS011;26933;46.730;6.526;2022-10-31T15:45:15;3.20;;;1.33;;
39536;SDS011;26933;46.730;6.526;2022-10-31T15:48:20;1.63;;;1.20;;
39536;SDS011;26933;46.730;6.526;2022-10-31T15:51:26;3.58;;;1.83;;
39536;SDS011;26933;46.730;6.526;2022-10-31T15:54:28;2.15;;;1.23;;
39536;SDS011;26933;46.730;6.526;2022-10-31T15:57:29;3.63;;;1.80;;
39536;SDS011;26933;46.730;6.526;2022-10-31T16:00:32;3.53;;;1.52;;
39536;SDS011;26933;46.730;6.526;2022-10-31T16:03:34;3.55;;;1.65;;
39536;SDS011;26933;46.730;6.526;2022-10-31T16:06:35;5.03;;;1.80;;
39536;SDS011;26933;46.730;6.526;2022-10-31T16:09:36;2.72;;;1.15;;
39536;SDS011;26933;46.730;6.526;2022-10-31T16:12:41;4.28;;;2.20;;
39536;SDS011;26933;46.730;6.526;2022-10-31T16:15:50;3.30;;;1.88;;
39536;SDS011;26933;46.730;6.526;2022-10-31T16:18:53;1.92;;;1.20;;
39536;SDS011;26933;46.730;6.526;2022-10-31T16:22:19;2.03;;;1.30;;
39536;SDS011;26933;46.730;6.526;2022-10-31T16:25:17;4.88;;;2.45;;
39536;SDS011;26933;46.730;6.526;2022-10-31T16:28:22;3.05;;;1.45;;
39536;SDS011;26933;46.730;6.526;2022-10-31T16:31:28;2.78;;;1.40;;
39536;SDS011;26933;46.730;6.526;2022-10-31T16:34:30;2.80;;;1.50;;
39536;SDS011;26933;46.730;6.526;2022-10-31T16:37:31;2.25;;;1.35;;
39536;SDS011;26933;46.730;6.526;2022-10-31T16:40:32;16.98;;;1.40;;
39536;SDS011;26933;46.730;6.526;2022-10-31T16:43:33;3.17;;;1.50;;
39536;SDS011;26933;46.730;6.526;2022-10-31T16:46:35;1.88;;;0.73;;
39536;SDS011;26933;46.730;6.526;2022-10-31T16:49:36;2.90;;;1.58;;
39536;SDS011;26933;46.730;6.526;2022-10-31T16:52:37;2.35;;;1.33;;
39536;SDS011;26933;46.730;6.526;2022-10-31T16:55:45;3.72;;;1.83;;
39536;SDS011;26933;46.730;6.526;2022-10-31T16:58:47;3.08;;;1.27;;
39536;SDS011;26933;46.730;6.526;2022-10-31T17:01:48;3.50;;;1.83;;
39536;SDS011;26933;46.730;6.526;2022-10-31T17:04:49;4.07;;;1.70;;
39536;SDS011;26933;46.730;6.526;2022-10-31T17:07:51;5.68;;;1.88;;
39536;SDS011;26933;46.730;6.526;2022-10-31T17:10:53;4.60;;;2.33;;
39536;SDS011;26933;46.730;6.526;2022-10-31T17:13:55;5.18;;;2.28;;
39536;SDS011;26933;46.730;6.526;2022-10-31T17:16:56;2.90;;;1.58;;
39536;SDS011;26933;46.730;6.526;2022-10-31T17:19:57;5.55;;;1.92;;
39536;SDS011;26933;46.730;6.526;2022-10-31T17:22:58;3.05;;;1.52;;
39536;SDS011;26933;46.730;6.526;2022-10-31T17:26:00;4.18;;;1.75;;
39536;SDS011;26933;46.730;6.526;2022-10-31T17:29:01;2.40;;;1.02;;
39536;SDS011;26933;46.730;6.526;2022-10-31T17:32:02;3.83;;;1.90;;
39536;SDS011;26933;46.730;6.526;2022-10-31T17:35:04;3.22;;;1.73;;
39536;SDS011;26933;46.730;6.526;2022-10-31T17:38:05;1.95;;;1.02;;
39536;SDS011;26933;46.730;6.526;2022-10-31T17:41:07;3.05;;;1.85;;
39536;SDS011;26933;46.730;6.526;2022-10-31T17:44:09;3.85;;;1.88;;
39536;SDS011;26933;46.730;6.526;2022-10-31T17:47:10;5.60;;;1.27;;
39536;SDS011;26933;46.730;6.526;2022-10-31T17:50:11;3.15;;;1.88;;
39536;SDS011;26933;46.730;6.526;2022-10-31T17:53:12;4.00;;;1.73;;
39536;SDS011;26933;46.730;6.526;2022-10-31T17:56:14;3.72;;;1.52;;
39536;SDS011;26933;46.730;6.526;2022-10-31T17:59:15;5.18;;;1.85;;
39536;SDS011;26933;46.730;6.526;2022-10-31T18:02:16;3.28;;;1.63;;
39536;SDS011;26933;46.730;6.526;2022-10-31T18:05:17;4.22;;;1.75;;
39536;SDS011;26933;46.730;6.526;2022-10-31T18:08:18;7.63;;;3.28;;
39536;SDS011;26933;46.730;6.526;2022-10-31T18:11:20;2.25;;;1.40;;
39536;SDS011;26933;46.730;6.526;2022-10-31T18:14:21;3.53;;;1.63;;
39536;SDS011;26933;46.730;6.526;2022-10-31T18:17:23;2.08;;;1.40;;
39536;SDS011;26933;46.730;6.526;2022-10-31T18:20:24;4.40;;;2.53;;
39536;SDS011;26933;46.730;6.526;2022-10-31T18:23:25;5.47;;;2.05;;
39536;SDS011;26933;46.730;6.526;2022-10-31T18:26:26;5.32;;;2.60;;
39536;SDS011;26933;46.730;6.526;2022-10-31T18:29:27;3.35;;;1.70;;
39536;SDS011;26933;46.730;6.526;2022-10-31T18:32:29;1.95;;;1.40;;
39536;SDS011;26933;46.730;6.526;2022-10-31T18:35:30;5.97;;;2.65;;
39536;SDS011;26933;46.730;6.526;2022-10-31T18:38:31;2.90;;;1.58;;
39536;SDS011;26933;46.730;6.526;2022-10-31T18:41:32;1.13;;;0.88;;
39536;SDS011;26933;46.730;6.526;2022-10-31T18:44:34;3.88;;;1.92;;
39536;SDS011;26933;46.730;6.526;2022-10-31T18:47:36;4.00;;;1.25;;
39536;SDS011;26933;46.730;6.526;2022-10-31T18:50:40;1.48;;;0.90;;
39536;SDS011;26933;46.730;6.526;2022-10-31T18:53:41;5.30;;;1.52;;
39536;SDS011;26933;46.730;6.526;2022-10-31T18:56:42;2.40;;;1.52;;
39536;SDS011;26933;46.730;6.526;2022-10-31T18:59:44;5.45;;;1.48;;
39536;SDS011;26933;46.730;6.526;2022-10-31T19:02:45;1.70;;;1.25;;
39536;SDS011;26933;46.730;6.526;2022-10-31T19:05:46;3.95;;;2.03;;
39536;SDS011;26933;46.730;6.526;2022-10-31T19:08:47;3.83;;;2.20;;
39536;SDS011;26933;46.730;6.526;2022-10-31T19:11:48;4.55;;;1.50;;
39536;SDS011;26933;46.730;6.526;2022-10-31T19:14:49;7.53;;;3.00;;
39536;SDS011;26933;46.730;6.526;2022-10-31T19:17:51;4.00;;;2.08;;
39536;SDS011;26933;46.730;6.526;2022-10-31T19:20:52;2.30;;;1.60;;
39536;SDS011;26933;46.730;6.526;2022-10-31T19:23:53;3.92;;;2.20;;
39536;SDS011;26933;46.730;6.526;2022-10-31T19:26:55;4.55;;;1.38;;
39536;SDS011;26933;46.730;6.526;2022-10-31T19:29:57;3.97;;;1.42;;
39536;SDS011;26933;46.730;6.526;2022-10-31T19:33:00;2.33;;;1.33;;
39536;SDS011;26933;46.730;6.526;2022-10-31T19:36:03;4.47;;;2.17;;
39536;SDS011;26933;46.730;6.526;2022-10-31T19:39:08;4.07;;;2.17;;
39536;SDS011;26933;46.730;6.526;2022-10-31T19:42:09;4.55;;;1.80;;
39536;SDS011;26933;46.730;6.526;2022-10-31T19:45:10;2.13;;;1.10;;
39536;SDS011;26933;46.730;6.526;2022-10-31T19:48:11;4.60;;;2.20;;
39536;SDS011;26933;46.730;6.526;2022-10-31T19:51:13;1.75;;;0.98;;
39536;SDS011;26933;46.730;6.526;2022-10-31T19:54:15;3.60;;;2.30;;
39536;SDS011;26933;46.730;6.526;2022-10-31T19:57:16;2.38;;;1.40;;
39536;SDS011;26933;46.730;6.526;2022-10-31T20:00:17;2.15;;;1.40;;
39536;SDS011;26933;46.730;6.526;2022-10-31T20:03:19;3.85;;;1.73;;
39536;SDS011;26933;46.730;6.526;2022-10-31T20:09:21;3.78;;;1.90;;
39536;SDS011;26933;46.730;6.526;2022-10-31T20:12:22;2.00;;;1.20;;
39536;SDS011;26933;46.730;6.526;2022-10-31T20:15:24;5.35;;;2.08;;
39536;SDS011;26933;46.730;6.526;2022-10-31T20:18:25;4.85;;;1.98;;
39536;SDS011;26933;46.730;6.526;2022-10-31T20:21:27;5.00;;;2.28;;
39536;SDS011;26933;46.730;6.526;2022-10-31T20:24:30;4.00;;;1.10;;
39536;SDS011;26933;46.730;6.526;2022-10-31T20:27:31;4.13;;;1.38;;
39536;SDS011;26933;46.730;6.526;2022-10-31T20:30:34;3.80;;;1.50;;
39536;SDS011;26933;46.730;6.526;2022-10-31T20:33:36;4.90;;;2.70;;